createdAt,value
2023-01-31T00:00:47.215Z,1999.90
2023-01-31T00:01:47.234Z,1999.90
2023-01-31T00:02:47.300Z,1999.90
2023-01-31T00:03:47.209Z,1999.90
2023-01-31T00:04:47.207Z,1999.90
2023-01-31T00:05:47.181Z,1999.90
2023-01-31T00:06:47.151Z,1999.90
2023-01-31T00:07:47.149Z,1999.90
2023-01-31T00:08:47.125Z,1999.90
2023-01-31T00:09:47.166Z,1999.90
2023-01-31T00:10:47.102Z,1999.90
2023-01-31T00:11:47.107Z,1999.90
2023-01-31T00:12:47.090Z,1999.90
2023-01-31T00:13:47.085Z,1999.90
2023-01-31T00:14:47.089Z,1999.90
2023-01-31T00:15:47.118Z,1999.90
2023-01-31T00:16:47.051Z,1999.90
2023-01-31T00:17:47.024Z,1999.90
2023-01-31T00:18:47.021Z,1999.90
2023-01-31T00:19:47.066Z,1999.90
2023-01-31T00:20:47.005Z,1999.90
2023-01-31T00:21:47.006Z,1999.90
2023-01-31T00:22:46.976Z,1999.90
2023-01-31T00:23:46.982Z,1999.90
2023-01-31T00:24:46.999Z,1999.90
2023-01-31T00:25:46.942Z,1999.90
2023-01-31T00:26:46.979Z,1999.90
2023-01-31T00:27:46.935Z,1999.90
2023-01-31T00:28:46.917Z,1999.90
2023-01-31T00:29:46.968Z,1999.90
2023-01-31T00:30:46.896Z,1999.90
2023-01-31T00:31:46.955Z,1999.90
2023-01-31T00:32:46.867Z,1999.90
2023-01-31T00:33:46.865Z,1230.60
2023-01-31T00:34:46.865Z,1999.90
2023-01-31T00:35:46.833Z,1999.90
2023-01-31T00:36:46.797Z,1999.90
2023-01-31T00:37:46.792Z,1999.90
2023-01-31T00:38:46.790Z,1999.90
2023-01-31T00:39:46.817Z,1828.50
2023-01-31T00:40:46.778Z,1999.90
2023-01-31T00:41:46.813Z,1999.90
2023-01-31T00:42:46.765Z,1636.50
2023-01-31T00:43:46.747Z,1999.90
2023-01-31T00:44:46.757Z,1999.90
2023-01-31T00:45:46.724Z,1999.90
2023-01-31T00:46:46.801Z,1752.00
2023-01-31T00:47:46.698Z,1199.80
2023-01-31T00:48:46.686Z,1953.20
2023-01-31T00:49:46.714Z,1764.20
2023-01-31T00:50:46.667Z,906.70
2023-01-31T00:51:46.665Z,656.90
2023-01-31T00:52:46.701Z,1267.40
2023-01-31T00:53:46.646Z,1246.00
2023-01-31T00:54:46.645Z,668.30
2023-01-31T00:55:46.606Z,600.00
2023-01-31T00:56:46.603Z,717.60
2023-01-31T00:57:46.592Z,778.40
2023-01-31T00:58:46.583Z,777.90
2023-01-31T00:59:46.600Z,712.40
2023-01-31T01:00:46.597Z,728.50
2023-01-31T01:01:46.567Z,726.50
2023-01-31T01:02:46.547Z,583.60
2023-01-31T01:03:46.715Z,640.30
2023-01-31T01:04:46.547Z,653.50
2023-01-31T01:05:46.502Z,673.90
2023-01-31T01:06:46.463Z,654.40
2023-01-31T01:07:46.472Z,677.40
2023-01-31T01:08:46.474Z,583.00
2023-01-31T01:09:46.445Z,662.20
2023-01-31T01:10:46.463Z,596.10
2023-01-31T01:11:46.433Z,546.10
2023-01-31T01:12:46.422Z,546.40
2023-01-31T01:13:46.400Z,602.60
2023-01-31T01:14:46.398Z,571.00
2023-01-31T01:15:46.418Z,468.70
2023-01-31T01:16:46.426Z,409.50
2023-01-31T01:17:46.393Z,417.60
2023-01-31T01:18:46.347Z,1999.90
2023-01-31T01:19:46.337Z,451.30
2023-01-31T01:20:46.353Z,171.60
2023-01-31T01:21:46.329Z,1999.90
2023-01-31T01:22:46.295Z,1999.90
2023-01-31T01:23:46.303Z,1999.90
2023-01-31T01:24:46.305Z,1999.90
2023-01-31T01:25:46.321Z,392.00
2023-01-31T01:26:46.332Z,1999.90
2023-01-31T01:27:46.272Z,230.10
2023-01-31T01:28:46.257Z,635.40
2023-01-31T01:29:46.233Z,671.00
2023-01-31T01:30:46.254Z,860.30
2023-01-31T01:31:46.352Z,959.10
2023-01-31T01:32:46.186Z,775.80
2023-01-31T01:33:46.183Z,749.30
2023-01-31T01:34:46.168Z,1999.90
2023-01-31T01:35:46.193Z,1999.90
2023-01-31T01:36:48.020Z,194.50
2023-01-31T01:37:46.164Z,593.60
2023-01-31T01:38:46.124Z,753.50
2023-01-31T01:39:46.101Z,1000.10
2023-01-31T01:40:46.118Z,1999.90
2023-01-31T01:41:46.100Z,1621.50
2023-01-31T01:42:46.063Z,1750.10
2023-01-31T01:43:46.074Z,1733.50
2023-01-31T01:44:46.069Z,1236.50
2023-01-31T01:45:46.134Z,1999.90
2023-01-31T01:46:46.058Z,502.70
2023-01-31T01:47:46.040Z,1999.90
2023-01-31T01:48:46.025Z,1999.90
2023-01-31T01:49:46.002Z,1999.90
2023-01-31T01:50:46.020Z,1999.90
2023-01-31T01:51:45.996Z,1999.90
2023-01-31T01:52:45.956Z,838.60
2023-01-31T01:53:45.977Z,1999.90
2023-01-31T01:54:45.943Z,882.40
2023-01-31T01:55:45.967Z,1999.90
2023-01-31T01:56:45.939Z,1999.90
2023-01-31T01:57:45.919Z,1999.90
2023-01-31T01:58:45.900Z,1999.90
2023-01-31T01:59:45.885Z,1999.90
2023-01-31T02:00:45.951Z,1999.90
2023-01-31T02:01:45.865Z,1999.90
2023-01-31T02:02:45.866Z,1999.90
2023-01-31T02:03:45.857Z,1999.90
2023-01-31T02:04:45.839Z,809.80
2023-01-31T02:05:45.874Z,1999.90
2023-01-31T02:06:45.815Z,1621.60
2023-01-31T02:07:45.840Z,1999.90
2023-01-31T02:08:45.791Z,1631.80
2023-01-31T02:09:45.779Z,754.60
2023-01-31T02:10:45.793Z,799.70
2023-01-31T02:11:45.744Z,958.50
2023-01-31T02:12:45.769Z,661.50
2023-01-31T02:13:45.740Z,1192.20
2023-01-31T02:14:45.726Z,1999.90
2023-01-31T02:15:45.763Z,1630.60
2023-01-31T02:16:45.736Z,818.20
2023-01-31T02:17:45.706Z,1706.80
2023-01-31T02:18:45.683Z,815.50
2023-01-31T02:19:45.674Z,1461.50
2023-01-31T02:20:45.684Z,890.70
2023-01-31T02:21:45.657Z,1059.50
2023-01-31T02:22:45.638Z,891.20
2023-01-31T02:23:45.633Z,890.80
2023-01-31T02:24:45.603Z,681.20
2023-01-31T02:25:45.634Z,1153.20
2023-01-31T02:26:45.606Z,1999.90
2023-01-31T02:27:45.590Z,1999.90
2023-01-31T02:28:45.558Z,915.30
2023-01-31T02:29:45.553Z,1922.20
2023-01-31T02:30:45.650Z,1758.80
2023-01-31T02:31:45.631Z,1999.90
2023-01-31T02:32:45.515Z,1710.80
2023-01-31T02:33:45.515Z,1999.90
2023-01-31T02:34:45.495Z,1999.90
2023-01-31T02:35:45.535Z,1999.90
2023-01-31T02:36:45.486Z,1206.80
2023-01-31T02:37:45.473Z,1429.70
2023-01-31T02:38:45.452Z,1999.90
2023-01-31T02:39:45.459Z,1999.90
2023-01-31T02:40:45.485Z,370.30
2023-01-31T02:41:45.430Z,1999.90
2023-01-31T02:42:45.404Z,1999.90
2023-01-31T02:43:45.400Z,351.60
2023-01-31T02:44:45.366Z,1999.90
2023-01-31T02:45:45.454Z,1178.50
2023-01-31T02:46:45.350Z,1999.90
2023-01-31T02:47:45.367Z,1836.20
2023-01-31T02:48:45.338Z,1999.90
2023-01-31T02:49:45.372Z,330.60
2023-01-31T02:50:45.369Z,1999.90
2023-01-31T02:51:45.312Z,1999.90
2023-01-31T02:52:45.282Z,1999.90
2023-01-31T02:53:45.290Z,435.00
2023-01-31T02:54:45.266Z,1999.90
2023-01-31T02:55:45.303Z,416.30
2023-01-31T02:56:45.263Z,1999.90
2023-01-31T02:57:45.260Z,1999.90
2023-01-31T02:58:45.218Z,1999.90
2023-01-31T02:59:45.230Z,1999.90
2023-01-31T03:00:45.632Z,1999.90
2023-01-31T03:01:45.225Z,1999.90
2023-01-31T03:02:45.194Z,1999.90
2023-01-31T03:03:45.182Z,1999.90
2023-01-31T03:04:45.163Z,1999.90
2023-01-31T03:05:45.184Z,1276.20
2023-01-31T03:06:45.145Z,1999.90
2023-01-31T03:07:45.136Z,1999.90
2023-01-31T03:08:45.149Z,1999.90
2023-01-31T03:09:45.127Z,1999.90
2023-01-31T03:10:45.158Z,1999.90
2023-01-31T03:11:45.094Z,1999.90
2023-01-31T03:12:45.081Z,1269.40
2023-01-31T03:13:45.079Z,1982.60
2023-01-31T03:14:45.046Z,1107.20
2023-01-31T03:15:45.076Z,919.50
2023-01-31T03:16:45.051Z,772.40
2023-01-31T03:17:45.021Z,520.70
2023-01-31T03:18:45.029Z,594.10
2023-01-31T03:19:45.012Z,576.30
2023-01-31T03:20:45.018Z,1267.40
2023-01-31T03:21:44.993Z,1725.70
2023-01-31T03:22:44.977Z,1680.90
2023-01-31T03:23:44.956Z,1344.70
2023-01-31T03:24:44.946Z,520.60
2023-01-31T03:25:44.973Z,633.00
2023-01-31T03:26:44.966Z,525.10
2023-01-31T03:27:44.915Z,349.40
2023-01-31T03:28:44.891Z,332.70
2023-01-31T03:29:44.888Z,376.50
2023-01-31T03:30:45.016Z,342.10
2023-01-31T03:31:44.969Z,607.50
2023-01-31T03:32:44.860Z,617.50
2023-01-31T03:33:44.838Z,679.20
2023-01-31T03:34:44.820Z,726.40
2023-01-31T03:35:44.864Z,664.10
2023-01-31T03:36:44.810Z,622.30
2023-01-31T03:37:44.793Z,606.40
2023-01-31T03:38:44.775Z,724.10
2023-01-31T03:39:44.779Z,544.10
2023-01-31T03:40:44.791Z,489.20
2023-01-31T03:41:44.753Z,770.70
2023-01-31T03:42:44.735Z,396.30
2023-01-31T03:43:44.752Z,389.60
2023-01-31T03:44:44.723Z,377.90
2023-01-31T03:45:44.748Z,379.80
2023-01-31T03:46:44.688Z,345.30
2023-01-31T03:47:44.691Z,311.50
2023-01-31T03:48:44.677Z,301.00
2023-01-31T03:49:44.644Z,314.10
2023-01-31T03:50:44.683Z,343.20
2023-01-31T03:51:44.662Z,365.10
2023-01-31T03:52:44.617Z,369.60
2023-01-31T03:53:44.613Z,82.60
2023-01-31T03:54:44.604Z,153.40
2023-01-31T03:55:44.643Z,232.60
2023-01-31T03:56:44.582Z,631.80
2023-01-31T03:57:44.555Z,535.90
2023-01-31T03:58:44.576Z,530.00
2023-01-31T03:59:44.551Z,541.70
2023-01-31T04:00:44.558Z,543.70
2023-01-31T04:01:44.662Z,502.20
2023-01-31T04:02:44.529Z,511.00
2023-01-31T04:03:44.498Z,466.60
2023-01-31T04:04:44.477Z,551.00
2023-01-31T04:05:44.511Z,516.10
2023-01-31T04:06:44.467Z,522.30
2023-01-31T04:07:44.449Z,535.40
2023-01-31T04:08:44.449Z,502.90
2023-01-31T04:09:44.447Z,629.50
2023-01-31T04:10:44.450Z,722.30
2023-01-31T04:11:44.400Z,708.40
2023-01-31T04:12:44.397Z,696.90
2023-01-31T04:13:44.368Z,663.00
2023-01-31T04:14:44.378Z,946.90
2023-01-31T04:15:44.414Z,957.40
2023-01-31T04:16:44.346Z,995.20
2023-01-31T04:17:44.324Z,602.70
2023-01-31T04:18:44.331Z,948.70
2023-01-31T04:19:44.313Z,796.30
2023-01-31T04:20:44.341Z,315.50
2023-01-31T04:21:44.293Z,1999.90
2023-01-31T04:22:44.269Z,1999.90
2023-01-31T04:23:44.258Z,508.40
2023-01-31T04:24:44.261Z,1191.90
2023-01-31T04:25:44.297Z,1999.90
2023-01-31T04:26:44.277Z,1999.90
2023-01-31T04:27:44.228Z,1999.90
2023-01-31T04:28:44.247Z,1999.90
2023-01-31T04:29:44.205Z,1999.90
2023-01-31T04:30:44.226Z,1999.90
2023-01-31T04:31:44.239Z,1999.90
2023-01-31T04:32:44.166Z,578.90
2023-01-31T04:33:44.143Z,1999.90
2023-01-31T04:34:44.138Z,1254.10
2023-01-31T04:35:44.165Z,1949.00
2023-01-31T04:36:44.124Z,1747.80
2023-01-31T04:37:44.093Z,1999.90
2023-01-31T04:38:44.107Z,1999.90
2023-01-31T04:39:44.076Z,1999.90
2023-01-31T04:40:44.112Z,1999.90
2023-01-31T04:41:44.067Z,1999.90
2023-01-31T04:42:44.041Z,1999.90
2023-01-31T04:43:44.040Z,660.70
2023-01-31T04:44:44.042Z,1323.30
2023-01-31T04:45:44.045Z,1397.50
2023-01-31T04:46:44.047Z,1999.90
2023-01-31T04:47:44.001Z,1999.90
2023-01-31T04:48:43.969Z,1477.70
2023-01-31T04:49:43.971Z,1887.90
2023-01-31T04:50:44.012Z,1999.90
2023-01-31T04:51:43.942Z,1999.90
2023-01-31T04:52:43.953Z,1999.90
2023-01-31T04:53:43.937Z,1999.90
2023-01-31T04:54:43.934Z,1999.90
2023-01-31T04:55:43.934Z,1999.90
2023-01-31T04:56:43.907Z,1999.90
2023-01-31T04:57:43.868Z,1999.90
2023-01-31T04:58:43.884Z,1999.90
2023-01-31T04:59:43.848Z,1999.90
2023-01-31T05:00:43.932Z,1999.90
2023-01-31T05:01:43.851Z,1999.90
2023-01-31T05:02:43.890Z,1051.00
2023-01-31T05:03:43.816Z,1999.90
2023-01-31T05:04:43.820Z,718.80
2023-01-31T05:05:43.837Z,1999.90
2023-01-31T05:06:43.776Z,1759.30
2023-01-31T05:07:43.776Z,1274.70
2023-01-31T05:08:43.758Z,888.40
2023-01-31T05:09:43.736Z,1486.80
2023-01-31T05:10:43.790Z,1672.30
2023-01-31T05:11:43.714Z,1999.90
2023-01-31T05:12:43.719Z,1323.70
2023-01-31T05:13:43.697Z,1999.90
2023-01-31T05:14:43.733Z,1999.90
2023-01-31T05:15:43.698Z,1999.90
2023-01-31T05:16:43.676Z,1999.90
2023-01-31T05:17:43.648Z,1999.90
2023-01-31T05:18:43.647Z,1999.90
2023-01-31T05:19:43.621Z,883.90
2023-01-31T05:20:43.658Z,1999.90
2023-01-31T05:21:43.611Z,659.60
2023-01-31T05:22:43.597Z,1056.20
2023-01-31T05:23:43.577Z,1949.00
2023-01-31T05:24:43.582Z,1999.90
2023-01-31T05:25:43.600Z,1084.70
2023-01-31T05:26:43.611Z,1125.80
2023-01-31T05:27:43.541Z,1671.10
2023-01-31T05:28:43.543Z,978.20
2023-01-31T05:29:43.507Z,976.90
2023-01-31T05:30:43.554Z,1670.40
2023-01-31T05:31:43.520Z,847.10
2023-01-31T05:32:43.502Z,564.90
2023-01-31T05:33:43.492Z,386.10
2023-01-31T05:34:43.462Z,505.70
2023-01-31T05:35:43.505Z,732.40
2023-01-31T05:36:43.433Z,452.00
2023-01-31T05:37:43.436Z,518.90
2023-01-31T05:38:43.442Z,627.80
2023-01-31T05:39:43.437Z,333.60
2023-01-31T05:40:43.425Z,1999.90
2023-01-31T05:41:43.403Z,1999.90
2023-01-31T05:42:43.383Z,1999.90
2023-01-31T05:43:43.364Z,313.70
2023-01-31T05:44:43.353Z,1999.90
2023-01-31T05:45:43.427Z,192.20
2023-01-31T05:46:43.340Z,271.10
2023-01-31T05:47:43.301Z,1999.90
2023-01-31T05:48:43.299Z,509.90
2023-01-31T05:49:43.313Z,628.50
2023-01-31T05:50:43.324Z,504.40
2023-01-31T05:51:43.261Z,658.80
2023-01-31T05:52:43.261Z,597.80
2023-01-31T05:53:43.248Z,418.00
2023-01-31T05:54:43.222Z,484.50
2023-01-31T05:55:43.299Z,534.50
2023-01-31T05:56:43.235Z,234.80
2023-01-31T05:57:43.205Z,496.20
2023-01-31T05:58:43.193Z,693.00
2023-01-31T05:59:43.193Z,682.80
2023-01-31T06:00:43.202Z,500.50
2023-01-31T06:01:43.242Z,479.70
2023-01-31T06:02:43.163Z,436.50
2023-01-31T06:03:43.156Z,427.90
2023-01-31T06:04:43.123Z,412.50
2023-01-31T06:05:43.090Z,440.00
2023-01-31T06:06:43.168Z,1999.90
2023-01-31T06:07:43.090Z,1999.90
2023-01-31T06:08:43.101Z,1999.90
2023-01-31T06:09:43.073Z,323.30
2023-01-31T06:10:43.057Z,447.30
2023-01-31T06:11:43.077Z,492.00
2023-01-31T06:12:43.049Z,451.10
2023-01-31T06:13:43.027Z,439.80
2023-01-31T06:14:43.024Z,379.30
2023-01-31T06:15:43.026Z,399.50
2023-01-31T06:16:43.060Z,385.90
2023-01-31T06:17:43.003Z,415.40
2023-01-31T06:18:42.983Z,405.70
2023-01-31T06:19:42.933Z,395.20
2023-01-31T06:20:42.934Z,357.70
2023-01-31T06:21:42.967Z,544.40
2023-01-31T06:22:42.928Z,1107.50
2023-01-31T06:23:42.906Z,1015.20
2023-01-31T06:24:42.904Z,404.20
2023-01-31T06:25:42.910Z,756.10
2023-01-31T06:26:42.952Z,1006.40
2023-01-31T06:27:42.876Z,199.00
2023-01-31T06:28:44.514Z,303.70
2023-01-31T06:29:42.838Z,344.50
2023-01-31T06:30:42.900Z,522.90
2023-01-31T06:31:42.949Z,387.60
2023-01-31T06:32:42.806Z,411.10
2023-01-31T06:33:47.349Z,709.00
2023-01-31T06:34:43.786Z,660.10
2023-01-31T06:35:42.768Z,979.50
2023-01-31T06:36:42.807Z,237.40
2023-01-31T06:37:42.761Z,458.80
2023-01-31T06:38:42.926Z,426.10
2023-01-31T06:39:42.715Z,425.40
2023-01-31T06:40:42.748Z,409.60
2023-01-31T06:41:42.755Z,435.60
2023-01-31T06:42:42.715Z,423.20
2023-01-31T06:43:42.713Z,436.80
2023-01-31T06:44:42.694Z,448.20
2023-01-31T06:45:42.677Z,432.80
2023-01-31T06:46:42.707Z,429.30
2023-01-31T06:47:42.641Z,424.40
2023-01-31T06:48:42.666Z,432.30
2023-01-31T06:49:42.640Z,401.20
2023-01-31T06:50:42.627Z,394.70
2023-01-31T06:51:42.659Z,388.10
2023-01-31T06:52:42.596Z,363.30
2023-01-31T06:53:42.576Z,737.00
2023-01-31T06:54:42.579Z,234.90
2023-01-31T06:55:42.603Z,278.20
2023-01-31T06:56:42.599Z,206.90
2023-01-31T06:57:42.572Z,951.40
2023-01-31T06:58:42.535Z,194.40
2023-01-31T06:59:42.504Z,1162.60
2023-01-31T07:00:42.503Z,239.00
2023-01-31T07:01:42.590Z,177.50
2023-01-31T07:02:42.532Z,1082.50
2023-01-31T07:03:42.459Z,863.30
2023-01-31T07:04:42.548Z,183.70
2023-01-31T07:05:42.441Z,803.50
2023-01-31T07:06:42.457Z,1119.50
2023-01-31T07:07:42.468Z,226.50
2023-01-31T07:08:42.439Z,501.90
2023-01-31T07:09:42.408Z,1428.70
2023-01-31T07:10:42.399Z,613.60
2023-01-31T07:11:42.394Z,159.10
2023-01-31T07:12:42.413Z,170.00
2023-01-31T07:13:42.362Z,193.70
2023-01-31T07:14:42.354Z,122.30
2023-01-31T07:15:42.413Z,112.90
2023-01-31T07:16:42.300Z,124.30
2023-01-31T07:17:42.346Z,144.60
2023-01-31T07:18:42.274Z,122.50
2023-01-31T07:19:42.285Z,164.10
2023-01-31T07:20:42.300Z,116.80
2023-01-31T07:21:42.263Z,152.90
2023-01-31T07:22:42.292Z,122.70
2023-01-31T07:23:42.255Z,75.30
2023-01-31T07:24:42.226Z,92.60
2023-01-31T07:25:42.215Z,94.60
2023-01-31T07:26:42.259Z,84.00
2023-01-31T07:27:42.239Z,40.50
2023-01-31T07:28:42.189Z,72.90
2023-01-31T07:29:42.190Z,79.70
2023-01-31T07:30:42.211Z,82.00
2023-01-31T07:31:42.204Z,72.90
2023-01-31T07:32:42.218Z,79.20
2023-01-31T07:33:42.274Z,91.20
2023-01-31T07:34:42.148Z,88.30
2023-01-31T07:35:42.104Z,92.60
2023-01-31T07:36:42.115Z,66.10
2023-01-31T07:37:42.140Z,60.20
2023-01-31T07:38:42.089Z,48.30
2023-01-31T07:39:42.072Z,57.90
2023-01-31T07:40:42.048Z,63.00
2023-01-31T07:41:42.047Z,49.60
2023-01-31T07:42:42.020Z,45.60
2023-01-31T07:43:42.075Z,52.40
2023-01-31T07:44:42.013Z,67.50
2023-01-31T07:45:42.052Z,69.20
2023-01-31T07:46:41.989Z,67.20
2023-01-31T07:47:41.992Z,68.70
2023-01-31T07:48:42.006Z,46.40
2023-01-31T07:49:41.977Z,80.30
2023-01-31T07:50:41.978Z,77.80
2023-01-31T07:51:41.951Z,79.60
2023-01-31T07:52:41.911Z,54.60
2023-01-31T07:53:42.088Z,42.20
2023-01-31T07:54:41.916Z,71.20
2023-01-31T07:55:41.894Z,116.50
2023-01-31T07:56:41.915Z,77.80
2023-01-31T07:57:41.867Z,89.10
2023-01-31T07:58:41.896Z,44.60
2023-01-31T07:59:41.838Z,39.80
2023-01-31T08:00:41.932Z,61.30
2023-01-31T08:01:41.806Z,71.50
2023-01-31T08:02:41.811Z,73.10
2023-01-31T08:03:41.820Z,74.00
2023-01-31T08:04:41.861Z,73.10
2023-01-31T08:05:41.794Z,76.70
2023-01-31T08:06:41.754Z,79.00
2023-01-31T08:07:41.775Z,60.80
2023-01-31T08:08:41.788Z,38.40
2023-01-31T08:09:41.718Z,40.00
2023-01-31T08:10:41.701Z,34.90
2023-01-31T08:11:41.718Z,37.30
2023-01-31T08:12:41.698Z,69.20
2023-01-31T08:13:41.721Z,70.60
2023-01-31T08:14:41.676Z,85.60
2023-01-31T08:15:41.646Z,71.50
2023-01-31T08:16:41.678Z,53.10
2023-01-31T08:17:41.638Z,68.80
2023-01-31T08:18:41.664Z,41.30
2023-01-31T08:19:41.613Z,55.40
2023-01-31T08:20:41.612Z,48.50
2023-01-31T08:21:41.585Z,66.10
2023-01-31T08:22:41.590Z,50.80
2023-01-31T08:23:41.606Z,45.80
2023-01-31T08:24:41.571Z,71.00
2023-01-31T08:25:41.537Z,75.50
2023-01-31T08:26:41.553Z,66.70
2023-01-31T08:27:41.529Z,64.40
2023-01-31T08:28:41.553Z,72.90
2023-01-31T08:29:41.497Z,38.90
2023-01-31T08:30:41.490Z,39.60
2023-01-31T08:31:41.590Z,32.50
2023-01-31T08:32:41.502Z,31.20
2023-01-31T08:33:41.509Z,88.00
2023-01-31T08:34:41.499Z,102.10
2023-01-31T08:35:41.462Z,27.80
2023-01-31T08:36:41.458Z,40.50
2023-01-31T08:37:41.410Z,59.40
2023-01-31T08:38:41.416Z,65.20
2023-01-31T08:39:41.425Z,90.20
2023-01-31T08:40:41.354Z,75.40
2023-01-31T08:41:41.359Z,65.10
2023-01-31T08:42:41.361Z,129.50
2023-01-31T08:43:58.292Z,289.80
2023-01-31T08:44:42.377Z,57.30
2023-01-31T08:45:41.344Z,83.20
2023-01-31T08:46:41.417Z,118.30
2023-01-31T08:47:41.616Z,251.80
2023-01-31T08:48:42.099Z,349.60
2023-01-31T08:49:41.715Z,340.30
2023-01-31T08:50:41.657Z,105.00
2023-01-31T08:51:41.492Z,344.10
2023-01-31T08:52:41.448Z,386.30
2023-01-31T08:53:41.385Z,141.00
2023-01-31T08:54:41.368Z,435.50
2023-01-31T08:55:41.190Z,204.40
2023-01-31T08:56:41.210Z,389.80
2023-01-31T08:57:57.637Z,172.50
2023-01-31T08:58:42.194Z,787.00
2023-01-31T08:59:41.200Z,115.90
2023-01-31T09:00:41.133Z,99.30
2023-01-31T09:01:41.133Z,101.90
2023-01-31T09:02:41.127Z,121.90
2023-01-31T09:03:43.697Z,1999.90
2023-01-31T09:04:41.157Z,189.00
2023-01-31T09:05:41.138Z,631.90
2023-01-31T09:06:41.093Z,77.80
2023-01-31T09:07:41.061Z,138.00
2023-01-31T09:08:41.066Z,1999.90
2023-01-31T09:09:41.094Z,685.20
2023-01-31T09:10:41.084Z,1999.90
2023-01-31T09:11:41.006Z,100.50
2023-01-31T09:12:40.983Z,1999.90
2023-01-31T09:13:41.009Z,113.10
2023-01-31T09:14:41.046Z,622.20
2023-01-31T09:15:40.977Z,769.20
2023-01-31T09:16:43.252Z,147.30
2023-01-31T09:17:40.956Z,129.40
2023-01-31T09:18:40.946Z,289.70
2023-01-31T09:19:40.959Z,554.90
2023-01-31T09:20:40.927Z,119.50
2023-01-31T09:21:40.907Z,632.80
2023-01-31T09:22:40.887Z,1164.60
2023-01-31T09:23:42.700Z,238.00
2023-01-31T09:24:40.906Z,332.80
2023-01-31T09:25:46.943Z,1999.90
2023-01-31T09:26:41.965Z,99.40
2023-01-31T09:27:40.853Z,337.90
2023-01-31T09:28:40.819Z,314.00
2023-01-31T09:29:40.858Z,1999.90
2023-01-31T09:30:40.865Z,1679.80
2023-01-31T09:31:40.835Z,114.30
2023-01-31T09:32:40.782Z,70.00
2023-01-31T09:33:40.808Z,892.50
2023-01-31T09:34:40.809Z,178.80
2023-01-31T09:35:40.742Z,1999.90
2023-01-31T09:36:40.738Z,98.60
2023-01-31T09:37:40.723Z,264.90
2023-01-31T09:38:40.723Z,284.30
2023-01-31T09:39:40.780Z,143.60
2023-01-31T09:40:40.692Z,1999.90
2023-01-31T09:41:40.669Z,121.00
2023-01-31T09:42:40.644Z,370.10
2023-01-31T09:43:40.652Z,834.50
2023-01-31T09:44:40.678Z,97.00
2023-01-31T09:45:40.651Z,707.20
2023-01-31T09:46:40.653Z,222.40
2023-01-31T09:47:40.625Z,98.20
2023-01-31T09:48:40.606Z,1529.50
2023-01-31T09:49:40.650Z,98.40
2023-01-31T09:50:40.578Z,893.60
2023-01-31T09:51:40.587Z,257.40
2023-01-31T09:52:40.547Z,168.50
2023-01-31T09:53:40.542Z,211.60
2023-01-31T09:54:40.525Z,224.80
2023-01-31T09:55:40.549Z,249.60
2023-01-31T09:56:40.502Z,179.30
2023-01-31T09:57:40.498Z,107.80
2023-01-31T09:58:40.467Z,94.20
2023-01-31T09:59:40.479Z,77.60
2023-01-31T10:00:40.512Z,98.70
2023-01-31T10:01:40.438Z,126.20
2023-01-31T10:02:40.403Z,1999.90
2023-01-31T10:03:40.449Z,148.60
2023-01-31T10:04:40.415Z,122.40
2023-01-31T10:05:40.463Z,1999.90
2023-01-31T10:06:40.396Z,117.50
2023-01-31T10:07:40.363Z,1999.90
2023-01-31T10:08:40.349Z,172.00
2023-01-31T10:09:40.335Z,1999.90
2023-01-31T10:10:40.389Z,1999.90
2023-01-31T10:11:40.361Z,178.60
2023-01-31T10:12:40.319Z,203.60
2023-01-31T10:13:40.335Z,1999.90
2023-01-31T10:14:40.298Z,129.80
2023-01-31T10:15:40.351Z,132.40
2023-01-31T10:16:40.309Z,1999.90
2023-01-31T10:17:40.323Z,193.60
2023-01-31T10:18:40.256Z,173.80
2023-01-31T10:19:40.245Z,1999.90
2023-01-31T10:20:40.270Z,182.50
2023-01-31T10:21:40.238Z,1999.90
2023-01-31T10:22:40.204Z,302.10
2023-01-31T10:23:40.209Z,171.80
2023-01-31T10:24:40.179Z,202.20
2023-01-31T10:25:40.241Z,202.80
2023-01-31T10:26:40.210Z,214.70
2023-01-31T10:27:40.153Z,254.60
2023-01-31T10:28:40.146Z,1999.90
2023-01-31T10:29:40.132Z,932.90
2023-01-31T10:30:40.176Z,1999.90
2023-01-31T10:31:42.772Z,1999.90
2023-01-31T10:32:40.077Z,1999.90
2023-01-31T10:33:40.116Z,1999.90
2023-01-31T10:34:40.047Z,1999.90
2023-01-31T10:35:40.118Z,1999.90
2023-01-31T10:36:40.054Z,1999.90
2023-01-31T10:37:40.018Z,1999.90
2023-01-31T10:38:39.994Z,1999.90
2023-01-31T10:39:40.001Z,1999.90
2023-01-31T10:40:40.068Z,1999.90
2023-01-31T10:41:39.993Z,1999.90
2023-01-31T10:42:39.983Z,1999.90
2023-01-31T10:43:40.936Z,1999.90
2023-01-31T10:44:39.941Z,1999.90
2023-01-31T10:45:40.037Z,1999.90
2023-01-31T10:46:39.933Z,1999.90
2023-01-31T10:47:39.919Z,1999.90
2023-01-31T10:48:39.906Z,1999.90
2023-01-31T10:49:39.897Z,1999.90
2023-01-31T10:50:39.932Z,1999.90
2023-01-31T10:51:39.856Z,1999.90
2023-01-31T10:52:39.858Z,1999.90
2023-01-31T10:53:39.837Z,1999.90
2023-01-31T10:54:39.955Z,1999.90
2023-01-31T10:55:39.893Z,1999.90
2023-01-31T10:56:39.964Z,1999.90
2023-01-31T10:57:39.809Z,1999.90
2023-01-31T10:58:40.017Z,1999.90
2023-01-31T10:59:39.798Z,1999.90
2023-01-31T11:00:39.823Z,1999.90
2023-01-31T11:01:39.769Z,1999.90
2023-01-31T11:02:39.777Z,1999.90
2023-01-31T11:03:39.751Z,1999.90
2023-01-31T11:04:39.726Z,1999.90
2023-01-31T11:05:39.754Z,1999.90
2023-01-31T11:06:39.706Z,1999.90
2023-01-31T11:07:39.680Z,1999.90
2023-01-31T11:08:39.702Z,1999.90
2023-01-31T11:09:39.669Z,1999.90
2023-01-31T11:10:39.700Z,1999.90
2023-01-31T11:11:39.633Z,1999.90
2023-01-31T11:12:39.644Z,1999.90
2023-01-31T11:13:39.609Z,1999.90
2023-01-31T11:14:39.624Z,1999.90
2023-01-31T11:15:39.651Z,1999.90
2023-01-31T11:16:39.646Z,1999.90
2023-01-31T11:17:39.582Z,1999.90
2023-01-31T11:18:39.559Z,1999.90
2023-01-31T11:19:39.539Z,1999.90
2023-01-31T11:20:39.578Z,1999.90
2023-01-31T11:21:39.553Z,1999.90
2023-01-31T11:22:39.559Z,1999.90
2023-01-31T11:23:39.524Z,1999.90
2023-01-31T11:24:39.496Z,1999.90
2023-01-31T11:25:39.543Z,1999.90
2023-01-31T11:26:39.506Z,1999.90
2023-01-31T11:27:39.480Z,1999.90
2023-01-31T11:28:39.467Z,1999.90
2023-01-31T11:29:39.436Z,1999.90
2023-01-31T11:30:39.546Z,1999.90
2023-01-31T11:31:39.444Z,1999.90
2023-01-31T11:32:39.405Z,1999.90
2023-01-31T11:33:39.445Z,1999.90
2023-01-31T11:34:39.361Z,1999.90
2023-01-31T11:35:39.404Z,1999.90
2023-01-31T11:36:39.360Z,1999.90
2023-01-31T11:37:39.331Z,1999.90
2023-01-31T11:38:39.349Z,1999.90
2023-01-31T11:39:39.329Z,1999.90
2023-01-31T11:40:39.344Z,1999.90
2023-01-31T11:41:39.325Z,1999.90
2023-01-31T11:42:39.295Z,1999.90
2023-01-31T11:43:39.285Z,1999.90
2023-01-31T11:44:39.273Z,1999.90
2023-01-31T11:45:39.276Z,1999.90
2023-01-31T11:46:39.235Z,1999.90
2023-01-31T11:47:39.251Z,1999.90
2023-01-31T11:48:39.225Z,1999.90
2023-01-31T11:49:39.204Z,1999.90
2023-01-31T11:50:39.231Z,1999.90
2023-01-31T11:51:39.195Z,1999.90
2023-01-31T11:52:39.197Z,1999.90
2023-01-31T11:53:39.181Z,1999.90
2023-01-31T11:54:39.146Z,1999.90
2023-01-31T11:55:39.192Z,1999.90
2023-01-31T11:56:39.122Z,1999.90
2023-01-31T11:57:39.114Z,1999.90
2023-01-31T11:58:39.086Z,1999.90
2023-01-31T11:59:39.084Z,1999.90
2023-01-31T12:00:39.096Z,1999.90
2023-01-31T12:01:39.099Z,1999.90
2023-01-31T12:02:39.134Z,1999.90
2023-01-31T12:03:48.665Z,559.20
2023-01-31T12:04:40.037Z,1999.90
2023-01-31T12:05:39.061Z,651.30
2023-01-31T12:06:39.022Z,1184.80
2023-01-31T12:07:39.036Z,999.70
2023-01-31T12:08:39.042Z,292.50
2023-01-31T12:09:38.984Z,501.10
2023-01-31T12:10:39.028Z,26.30
2023-01-31T12:11:38.960Z,27.40
2023-01-31T12:12:39.224Z,47.50
2023-01-31T12:13:38.950Z,23.80
2023-01-31T12:14:38.914Z,24.80
2023-01-31T12:15:38.961Z,24.10
2023-01-31T12:16:38.915Z,23.30
2023-01-31T12:17:38.915Z,123.70
2023-01-31T12:18:38.873Z,23.20
2023-01-31T12:19:38.859Z,383.70
2023-01-31T12:20:38.902Z,394.80
2023-01-31T12:21:38.835Z,1074.60